Oneida, Arkansas
Current Conditions -  °F | °C
As of 8:15 AM on Saturday 25 Oct 2014 (Local Time) from KCKM Reporting Station
Clear Clear  
Wind Chill: 57°   Ceiling: Unl
Heat Index: 57°   Visibility: 8mi
Dew Point: 57°   Wind: 3mph
Humidity: 100%   Direction: 180°S
Pressure: 30.13"   Gusts: NA
Location:  34.46°N, 90.78°W
Report Text: KCKM 251315Z AUTO 18003KT 8SM CLR 14/14 A3013 RMK AO1
Loading
Personal Weather Stations






























Interactive Weather Map
Tropical Storm Tracking
New forecast layout! Learn more

10-Day Weather Forecast

Advertisements
Track Severe Weather on mobile